Time;durP1;ratioP1;P1;durP2;ratioP2;P2;SDS_P1;SDS_P2;PMS_P1;PMS_P2;Temp;Humidity;BMP_temperature;BMP_pressure;BME280_temperature;BME280_humidity;BME280_pressure;Samples;Min_cycle;Max_cycle;Signal;HPM_P1;HPM_P2
2022/02/01 00:01:58;;;;;;;5.47;3.85;;;;;;;;;;5050502;28;20208;-66
2022/02/01 00:04:36;;;;;;;6.63;4.68;;;;;;;;;;5050558;28;20266;-66
2022/02/01 00:07:12;;;;;;;6.68;3.72;;;;;;;;;;5048455;28;20308;-66
2022/02/01 00:09:49;;;;;;;6.65;4.55;;;;;;;;;;5050357;28;20190;-66
2022/02/01 00:12:26;;;;;;;2.72;1.70;;;;;;;;;;5051148;28;20185;-66
2022/02/01 00:15:26;;;;;;;3.60;1.85;;;;;;;;;;5050250;28;20226;-66
2022/02/01 00:34:40;;;;;;;2.42;1.02;;;;;;;;;;5011370;28;20223;-68
2022/02/01 00:37:15;;;;;;;2.17;0.80;;;;;;;;;;5051952;28;20194;-67
2022/02/01 00:39:44;;;;;;;3.05;0.93;;;;;;;;;;5062487;28;20205;-66
2022/02/01 00:42:11;;;;;;;2.20;0.73;;;;;;;;;;5072164;28;20196;-66
2022/02/01 00:44:39;;;;;;;1.42;0.63;;;;;;;;;;5071614;28;20182;-66
2022/02/01 00:47:07;;;;;;;3.67;1.02;;;;;;;;;;5072675;28;20201;-66
2022/02/01 00:49:35;;;;;;;1.70;0.73;;;;;;;;;;5072018;28;20193;-66
2022/02/01 00:52:03;;;;;;;2.13;0.82;;;;;;;;;;5072453;28;20196;-66
2022/02/01 00:54:32;;;;;;;4.63;0.70;;;;;;;;;;5071469;28;20259;-66
2022/02/01 00:57:00;;;;;;;1.80;0.75;;;;;;;;;;5072032;28;20198;-66
2022/02/01 00:59:27;;;;;;;1.40;0.60;;;;;;;;;;5071458;28;20185;-66
2022/02/01 01:01:55;;;;;;;1.75;0.70;;;;;;;;;;5071968;28;20240;-66
2022/02/01 01:04:22;;;;;;;1.90;0.80;;;;;;;;;;5071561;28;20186;-66
2022/02/01 01:06:50;;;;;;;1.58;0.70;;;;;;;;;;5072010;28;20533;-66
2022/02/01 01:09:17;;;;;;;1.48;0.68;;;;;;;;;;5071875;28;20195;-66
2022/02/01 01:11:51;;;;;;;1.50;0.60;;;;;;;;;;5071602;28;20232;-66
2022/02/01 01:14:49;;;;;;;1.45;0.68;;;;;;;;;;5071199;28;20261;-66
2022/02/01 01:44:52;;;;;;;1.77;0.82;;;;;;;;;;5071388;28;20243;-66
2022/02/01 01:55:31;;;;;;;2.35;0.88;;;3.70;87.80;;;;;;5072550;28;20189;-66
2022/02/01 01:57:59;;;;;;;1.50;0.60;;;3.60;87.90;;;;;;5074811;28;20202;-66
2022/02/01 02:00:40;;;;;;;1.60;0.80;;;3.60;87.70;;;;;;5074863;28;20220;-66
2022/02/01 02:03:08;;;;;;;1.90;1.00;;;3.60;87.60;;;;;;5074891;28;20193;-67
2022/02/01 02:05:35;;;;;;;1.90;1.00;;;3.50;87.00;;;;;;5074485;28;20243;-66
2022/02/01 02:08:04;;;;;;;1.88;1.13;;;3.50;86.60;;;;;;5074740;28;20193;-66
2022/02/01 02:10:36;;;;;;;3.88;1.20;;;3.50;86.60;;;;;;5074384;28;20221;-66
2022/02/01 02:14:16;;;;;;;2.15;1.25;;;3.50;86.30;;;;;;5074664;28;20648;-66
2022/02/01 02:15:57;;;;;;;1.80;1.10;;;3.60;86.30;;;;;;5072885;28;20201;-66
2022/02/01 02:18:25;;;;;;;2.65;1.30;;;3.60;86.40;;;;;;5073853;28;20651;-65
2022/02/01 02:20:57;;;;;;;2.58;1.52;;;3.60;86.50;;;;;;5074505;28;20221;-66
2022/02/01 02:23:25;;;;;;;2.10;1.42;;;3.70;86.30;;;;;;5074209;28;20658;-66
2022/02/01 02:25:53;;;;;;;2.38;1.55;;;3.70;86.10;;;;;;5074325;28;20196;-66
2022/02/01 02:28:21;;;;;;;2.20;1.13;;;3.70;86.00;;;;;;5073882;28;20209;-66
2022/02/01 02:30:50;;;;;;;1.90;1.20;;;3.60;86.40;;;;;;5074200;28;20593;-66
2022/02/01 02:33:19;;;;;;;2.70;1.25;;;3.60;86.30;;;;;;5073837;28;20204;-66
2022/02/01 02:35:52;;;;;;;1.95;1.02;;;3.70;86.40;;;;;;5074279;28;20232;-66
2022/02/01 02:38:30;;;;;;;2.33;1.13;;;3.80;86.20;;;;;;5074040;28;20199;-66
2022/02/01 02:41:11;;;;;;;1.63;1.05;;;3.70;86.00;;;;;;5074314;28;20229;-66
2022/02/01 02:46:24;;;;;;;2.35;0.93;;;3.80;86.40;;;;;;5074243;28;20192;-66
2022/02/01 02:48:51;;;;;;;1.70;1.10;;;3.70;86.80;;;;;;5073537;28;20550;-66
2022/02/01 02:51:18;;;;;;;1.92;1.30;;;3.80;86.70;;;;;;5073950;28;20277;-66
2022/02/01 02:53:48;;;;;;;2.72;1.30;;;3.80;86.00;;;;;;5073352;28;20190;-66
2022/02/01 02:56:15;;;;;;;2.05;1.30;;;3.70;85.60;;;;;;5074213;28;20190;-66
2022/02/01 02:58:50;;;;;;;2.05;1.33;;;3.70;85.40;;;;;;5073878;28;20188;-66
2022/02/01 03:01:17;;;;;;;6.75;1.52;;;3.70;85.10;;;;;;5073170;28;20251;-66
2022/02/01 03:03:44;;;;;;;2.88;2.10;;;3.70;85.20;;;;;;5073093;28;20182;-66
2022/02/01 03:06:13;;;;;;;3.40;1.95;;;3.60;85.30;;;;;;5073549;28;20189;-66
2022/02/01 03:08:41;;;;;;;3.20;2.47;;;3.50;85.30;;;;;;5073127;28;20292;-67
2022/02/01 03:11:13;;;;;;;4.43;2.05;;;3.50;85.60;;;;;;5072748;28;20268;-66
2022/02/01 03:13:44;;;;;;;2.78;2.00;;;3.40;86.30;;;;;;5073341;28;20641;-67
2022/02/01 03:16:25;;;;;;;2.65;1.70;;;3.40;86.70;;;;;;5073371;28;20186;-66
2022/02/01 03:21:39;;;;;;;2.70;1.80;;;3.40;86.90;;;;;;5046966;28;20225;-66
2022/02/01 03:24:07;;;;;;;2.63;1.95;;;3.40;86.30;;;;;;5073098;28;20186;-65
2022/02/01 03:26:36;;;;;;;3.65;2.13;;;3.40;86.20;;;;;;5072917;28;20700;-66
2022/02/01 03:29:04;;;;;;;3.50;2.70;;;3.40;86.20;;;;;;5072606;28;20189;-65
2022/02/01 03:31:31;;;;;;;2.92;1.75;;;3.40;85.80;;;;;;5073018;28;20635;-68
2022/02/01 03:33:58;;;;;;;3.03;1.80;;;3.40;85.40;;;;;;5072515;28;20243;-66
2022/02/01 03:36:26;;;;;;;3.83;1.90;;;3.40;85.20;;;;;;5072893;28;20224;-66
2022/02/01 03:38:53;;;;;;;4.53;2.20;;;3.40;84.40;;;;;;5071984;28;20190;-66
2022/02/01 03:41:20;;;;;;;3.42;2.20;;;3.40;84.30;;;;;;5072061;28;20278;-66
2022/02/01 03:43:49;;;;;;;3.72;2.50;;;3.40;83.60;;;;;;5072436;28;20243;-66
2022/02/01 03:46:16;;;;;;;2.92;2.00;;;3.40;83.10;;;;;;5072400;28;20284;-67
2022/02/01 03:48:44;;;;;;;4.65;2.47;;;3.40;83.30;;;;;;5072521;28;20194;-66
2022/02/01 03:51:14;;;;;;;3.00;2.13;;;3.40;82.70;;;;;;5072526;28;20185;-67
2022/02/01 03:53:46;;;;;;;3.88;1.90;;;3.40;82.40;;;;;;5072350;28;20548;-66
2022/02/01 03:56:14;;;;;;;4.13;1.88;;;3.40;81.90;;;;;;5072321;28;20194;-67
2022/02/01 03:58:41;;;;;;;2.72;2.00;;;3.40;81.90;;;;;;5071949;28;20190;-66
2022/02/01 04:01:09;;;;;;;5.38;2.40;;;3.40;81.60;;;;;;5072118;28;20233;-66
2022/02/01 04:03:36;;;;;;;3.25;2.15;;;3.40;81.60;;;;;;5071926;28;20364;-66
2022/02/01 04:06:04;;;;;;;3.92;2.67;;;3.40;81.70;;;;;;5072707;28;20204;-65
2022/02/01 04:08:31;;;;;;;4.38;1.95;;;3.40;81.60;;;;;;5071880;28;20193;-66
2022/02/01 04:10:58;;;;;;;5.28;2.05;;;3.40;81.50;;;;;;5071485;28;20185;-66
2022/02/01 04:13:25;;;;;;;4.45;2.30;;;3.40;82.00;;;;;;5071247;28;20229;-66
2022/02/01 04:15:52;;;;;;;3.97;1.70;;;3.40;82.00;;;;;;5071953;28;20683;-66
2022/02/01 04:18:21;;;;;;;2.92;2.30;;;3.40;82.30;;;;;;5072186;28;20250;-66
2022/02/01 04:20:49;;;;;;;4.22;2.58;;;3.40;82.70;;;;;;5071495;28;20221;-66
2022/02/01 04:23:16;;;;;;;3.42;2.10;;;3.40;82.60;;;;;;5072366;28;20193;-66
2022/02/01 04:25:43;;;;;;;2.92;1.95;;;3.50;82.60;;;;;;5071919;28;20668;-66
2022/02/01 04:28:11;;;;;;;8.32;3.72;;;3.50;82.40;;;;;;5071767;28;20256;-66
2022/02/01 04:30:38;;;;;;;2.72;1.98;;;3.50;82.60;;;;;;5072300;28;20221;-65
2022/02/01 04:33:08;;;;;;;3.70;2.38;;;3.50;82.80;;;;;;5072071;28;20186;-66
2022/02/01 04:35:37;;;;;;;4.55;2.33;;;3.50;82.70;;;;;;5072331;28;20221;-66
2022/02/01 04:38:04;;;;;;;3.38;2.47;;;3.50;82.40;;;;;;5072224;28;20185;-66
2022/02/01 04:40:34;;;;;;;4.18;2.20;;;3.50;82.30;;;;;;5071559;28;20190;-66
2022/02/01 04:43:04;;;;;;;4.53;2.88;;;3.50;82.00;;;;;;5071590;28;20217;-66
2022/02/01 04:45:31;;;;;;;4.63;2.20;;;3.60;81.80;;;;;;5071521;28;20198;-66
2022/02/01 04:47:59;;;;;;;3.45;2.40;;;3.60;81.50;;;;;;5071656;28;20197;-65
2022/02/01 04:50:27;;;;;;;4.20;2.30;;;3.60;81.10;;;;;;5072024;28;20290;-66
2022/02/01 04:52:57;;;;;;;2.78;1.77;;;3.60;81.10;;;;;;5071932;28;20537;-66
2022/02/01 04:55:32;;;;;;;5.28;2.65;;;3.60;80.80;;;;;;5071881;28;20200;-66
2022/02/01 04:57:59;;;;;;;4.40;2.22;;;3.60;80.70;;;;;;5071920;28;20686;-66
2022/02/01 05:00:29;;;;;;;3.22;1.80;;;3.60;80.50;;;;;;5071915;28;20190;-66
2022/02/01 05:02:57;;;;;;;5.43;1.98;;;3.60;80.50;;;;;;5071622;28;20662;-66
2022/02/01 05:05:28;;;;;;;2.95;1.95;;;3.60;80.80;;;;;;5071914;28;20190;-66
2022/02/01 05:08:00;;;;;;;3.50;1.90;;;3.60;80.70;;;;;;5071584;28;20189;-66
2022/02/01 05:10:28;;;;;;;2.78;1.80;;;3.60;80.70;;;;;;5071859;28;20193;-66
2022/02/01 05:13:04;;;;;;;3.38;2.28;;;3.60;80.60;;;;;;5071203;28;20192;-67
2022/02/01 05:15:31;;;;;;;3.78;2.13;;;3.60;80.40;;;;;;5071879;28;20196;-66
2022/02/01 05:17:59;;;;;;;4.18;1.90;;;3.60;80.50;;;;;;5071205;28;20556;-67
2022/02/01 05:20:45;;;;;;;3.25;1.77;;;3.60;80.50;;;;;;5071439;28;20197;-66
2022/02/01 05:23:15;;;;;;;2.80;2.00;;;3.60;80.80;;;;;;5071824;28;20185;-67
2022/02/01 05:25:43;;;;;;;2.60;1.90;;;3.60;80.90;;;;;;5074804;28;20190;-69
2022/02/01 05:28:11;;;;;;;3.00;1.98;;;3.70;81.00;;;;;;5075422;28;20230;-66
2022/02/01 05:30:39;;;;;;;3.30;2.08;;;3.70;81.00;;;;;;5075279;28;20265;-66
2022/02/01 05:33:06;;;;;;;3.33;2.10;;;3.60;81.10;;;;;;5075585;28;20200;-66
2022/02/01 05:35:33;;;;;;;3.65;1.95;;;3.60;81.20;;;;;;5075066;28;20554;-66
2022/02/01 05:38:01;;;;;;;3.10;1.88;;;3.60;81.60;;;;;;5075079;28;20285;-66
2022/02/01 05:40:32;;;;;;;2.63;1.85;;;3.60;81.90;;;;;;5075284;28;20193;-66
2022/02/01 05:43:02;;;;;;;4.30;2.20;;;3.60;81.90;;;;;;5074298;28;20700;-66
2022/02/01 05:45:33;;;;;;;4.13;2.10;;;3.70;82.90;;;;;;5075383;28;20241;-66
2022/02/01 05:48:02;;;;;;;2.45;1.25;;;3.70;82.90;;;;;;5074771;28;20193;-67
2022/02/01 05:50:30;;;;;;;3.33;1.52;;;3.70;84.50;;;;;;5075242;28;20653;-66
2022/02/01 05:52:58;;;;;;;2.20;1.20;;;3.70;85.50;;;;;;5074589;28;20213;-72
2022/02/01 05:55:26;;;;;;;1.70;0.80;;;3.70;86.30;;;;;;5055038;28;20281;-66
2022/02/01 05:57:55;;;;;;;1.98;0.93;;;3.60;86.90;;;;;;5055068;28;20195;-66
2022/02/01 06:00:22;;;;;;;1.73;0.70;;;3.60;87.00;;;;;;5074400;28;20236;-66
2022/02/01 06:02:50;;;;;;;1.50;0.70;;;3.60;87.00;;;;;;5074587;28;20282;-66
2022/02/01 06:05:17;;;;;;;3.55;1.00;;;3.60;87.20;;;;;;5074392;28;20190;-66
2022/02/01 06:07:45;;;;;;;1.67;0.85;;;3.60;87.30;;;;;;5074688;28;20186;-67
2022/02/01 06:10:13;;;;;;;2.05;0.82;;;3.60;87.00;;;;;;5075137;28;20193;-66
2022/02/01 06:12:41;;;;;;;1.60;0.80;;;3.70;86.90;;;;;;5068755;28;20649;-66
2022/02/01 06:15:11;;;;;;;1.70;0.70;;;3.70;86.80;;;;;;5072817;28;20190;-67
2022/02/01 06:17:39;;;;;;;1.50;0.60;;;3.70;86.80;;;;;;5072821;28;20189;-66
2022/02/01 06:20:09;;;;;;;1.70;0.70;;;3.70;86.50;;;;;;5073611;28;20281;-67
2022/02/01 06:22:37;;;;;;;1.50;0.73;;;3.80;86.50;;;;;;5072626;28;20300;-66
2022/02/01 06:25:05;;;;;;;1.92;0.80;;;3.80;86.30;;;;;;5073026;28;20190;-66
2022/02/01 06:27:33;;;;;;;1.70;0.90;;;3.80;86.00;;;;;;5072612;28;20221;-66
2022/02/01 06:30:01;;;;;;;1.98;1.00;;;3.80;86.40;;;;;;5072775;28;20189;-67
2022/02/01 06:32:33;;;;;;;2.03;1.20;;;3.80;86.20;;;;;;5067760;28;20193;-67
2022/02/01 06:35:00;;;;;;;2.00;1.00;;;3.80;86.40;;;;;;5072401;28;20194;-66
2022/02/01 06:37:28;;;;;;;4.47;1.20;;;3.80;86.60;;;;;;5072193;28;20205;-67
2022/02/01 06:39:55;;;;;;;6.38;1.45;;;3.80;86.60;;;;;;5072279;28;20193;-67
2022/02/01 06:42:22;;;;;;;1.95;1.10;;;3.70;86.90;;;;;;5072686;28;20275;-67
2022/02/01 06:44:49;;;;;;;3.65;0.88;;;3.70;86.90;;;;;;5072232;28;20211;-66
2022/02/01 06:47:16;;;;;;;2.00;1.17;;;3.70;86.70;;;;;;5072543;28;20285;-67
2022/02/01 06:49:46;;;;;;;3.03;1.20;;;3.70;86.40;;;;;;5072263;28;20277;-67
2022/02/01 06:52:14;;;;;;;2.35;1.17;;;3.70;86.20;;;;;;5072394;28;20243;-67
2022/02/01 06:54:41;;;;;;;3.00;1.17;;;3.70;85.80;;;;;;5072269;28;20225;-67
2022/02/01 06:57:08;;;;;;;2.67;1.10;;;3.70;85.70;;;;;;5071750;28;20706;-67
2022/02/01 06:59:36;;;;;;;2.15;1.05;;;3.70;85.50;;;;;;5072170;28;20276;-66
2022/02/01 07:02:04;;;;;;;4.85;1.42;;;3.70;85.50;;;;;;5072225;28;20340;-67
2022/02/01 07:04:31;;;;;;;1.98;1.33;;;3.70;85.40;;;;;;5071949;28;20251;-66
2022/02/01 07:07:00;;;;;;;3.30;1.40;;;3.80;85.00;;;;;;5071863;28;20213;-66
2022/02/01 07:09:31;;;;;;;4.15;1.52;;;3.80;85.20;;;;;;5071978;28;20186;-66
2022/02/01 07:11:58;;;;;;;3.10;1.23;;;3.80;85.20;;;;;;5071801;28;20540;-66
2022/02/01 07:14:25;;;;;;;2.22;1.27;;;3.80;85.20;;;;;;5072405;28;20605;-68
2022/02/01 07:16:52;;;;;;;3.08;1.50;;;3.70;84.90;;;;;;5072373;28;20197;-68
2022/02/01 07:19:19;;;;;;;8.98;1.85;;;3.70;84.60;;;;;;5072367;28;20244;-67
2022/02/01 07:21:47;;;;;;;2.60;1.58;;;3.60;84.70;;;;;;5071866;28;20672;-67
2022/02/01 07:24:25;;;;;;;4.85;1.70;;;3.60;84.60;;;;;;5071695;28;20276;-67
2022/02/01 07:26:56;;;;;;;3.15;2.28;;;3.70;84.90;;;;;;5072011;28;20217;-66
2022/02/01 07:29:23;;;;;;;4.38;3.65;;;3.70;85.00;;;;;;5071727;28;20204;-68
2022/02/01 07:31:50;;;;;;;2.67;1.52;;;3.70;85.20;;;;;;5072057;28;20240;-67
2022/02/01 07:34:17;;;;;;;4.43;2.10;;;3.70;85.30;;;;;;5071902;28;20193;-67
2022/02/01 07:36:44;;;;;;;6.28;1.92;;;3.70;85.50;;;;;;5072129;28;20198;-66
2022/02/01 07:39:12;;;;;;;8.98;2.20;;;3.70;85.00;;;;;;5071354;28;20225;-67
2022/02/01 07:41:41;;;;;;;4.88;1.50;;;3.70;85.40;;;;;;5071798;28;20221;-66
2022/02/01 07:44:09;;;;;;;6.03;2.00;;;3.70;85.50;;;;;;5071900;28;20200;-67
2022/02/01 07:46:36;;;;;;;4.35;1.63;;;3.80;85.40;;;;;;5071708;28;20276;-67
2022/02/01 07:49:04;;;;;;;3.15;1.58;;;3.70;85.00;;;;;;5070760;28;20247;-67
2022/02/01 07:51:31;;;;;;;4.30;1.40;;;3.70;85.00;;;;;;5068419;28;20267;-66
2022/02/01 07:53:58;;;;;;;6.20;2.78;;;3.70;85.10;;;;;;5070124;28;20281;-71
2022/02/01 07:56:25;;;;;;;5.47;1.90;;;3.60;85.20;;;;;;5069801;28;20276;-67
2022/02/01 07:58:54;;;;;;;3.22;2.10;;;3.60;85.70;;;;;;5052908;28;20243;-69
2022/02/01 08:01:21;;;;;;;6.25;1.58;;;3.60;85.60;;;;;;5069819;28;20185;-66
2022/02/01 08:03:48;;;;;;;3.97;2.08;;;3.60;84.90;;;;;;5070982;28;20240;-67
2022/02/01 08:06:16;;;;;;;5.93;2.80;;;3.70;84.90;;;;;;5070550;28;20652;-66
2022/02/01 08:08:43;;;;;;;6.80;2.38;;;3.70;84.60;;;;;;5070164;28;20196;-67
2022/02/01 08:11:14;;;;;;;8.85;3.33;;;3.70;82.90;;;;;;5070192;28;20218;-66
2022/02/01 08:19:27;;;;;;;9.95;7.65;;;3.80;82.50;;;;;;5061046;28;20488;-67
2022/02/01 08:21:56;;;;;;;19.65;11.02;;;3.90;81.80;;;;;;5068095;28;20312;-67
2022/02/01 08:24:24;;;;;;;17.17;8.80;;;3.90;81.20;;;;;;5071046;28;20578;-66
2022/02/01 08:26:51;;;;;;;11.48;7.45;;;3.90;80.70;;;;;;5070182;28;20229;-67
2022/02/01 08:29:18;;;;;;;12.52;3.88;;;3.90;79.30;;;;;;5071118;28;20193;-67
2022/02/01 08:31:48;;;;;;;10.90;2.42;;;3.90;78.50;;;;;;5070583;28;20186;-67
2022/02/01 08:34:15;;;;;;;7.90;2.85;;;4.00;77.50;;;;;;5070262;28;20664;-68
2022/02/01 08:36:43;;;;;;;9.07;2.70;;;3.90;77.90;;;;;;5066490;28;20274;-66
2022/02/01 08:39:10;;;;;;;5.75;2.40;;;3.90;77.00;;;;;;5070596;28;20247;-67
2022/02/01 08:41:37;;;;;;;6.13;3.35;;;3.80;76.60;;;;;;5070719;28;20190;-66
2022/02/01 08:44:06;;;;;;;6.20;2.88;;;3.90;76.90;;;;;;5070244;28;20185;-69
2022/02/01 08:46:33;;;;;;;5.80;3.15;;;3.90;76.60;;;;;;5070230;28;20876;-66
2022/02/01 08:49:01;;;;;;;6.15;3.90;;;3.90;76.60;;;;;;5070268;28;20242;-66
2022/02/01 08:51:37;;;;;;;11.48;6.93;;;4.00;76.00;;;;;;5070279;28;20193;-66
2022/02/01 08:54:11;;;;;;;21.83;11.85;;;4.00;75.60;;;;;;5067434;28;20192;-66
2022/02/01 08:59:32;;;;;;;9.95;4.78;;;4.10;75.80;;;;;;5031660;28;20197;-66
2022/02/01 09:01:59;;;;;;;19.48;13.85;;;4.10;74.70;;;;;;5074009;28;20217;-67
2022/02/01 09:04:28;;;;;;;14.07;9.52;;;4.20;74.70;;;;;;5073586;28;20185;-66
2022/02/01 09:06:55;;;;;;;6.35;4.88;;;4.20;74.20;;;;;;5073873;28;20280;-67
2022/02/01 09:09:22;;;;;;;11.32;5.00;;;4.20;72.90;;;;;;5074168;28;20254;-68
2022/02/01 09:11:50;;;;;;;9.30;4.40;;;4.20;72.50;;;;;;5069657;28;20239;-67
2022/02/01 09:14:17;;;;;;;13.98;6.85;;;4.30;73.00;;;;;;5074281;28;20189;-66
2022/02/01 09:16:45;;;;;;;8.82;4.28;;;4.30;73.20;;;;;;5074304;28;20186;-67
2022/02/01 09:19:13;;;;;;;6.32;2.55;;;4.40;71.50;;;;;;5073688;28;20289;-67
2022/02/01 09:21:42;;;;;;;12.15;3.03;;;4.30;71.10;;;;;;5074202;28;20189;-69
2022/02/01 09:24:09;;;;;;;19.48;10.80;;;4.30;70.70;;;;;;5074463;28;20189;-66
2022/02/01 09:26:38;;;;;;;11.43;7.22;;;4.40;71.40;;;;;;5073125;28;20185;-66
2022/02/01 09:29:05;;;;;;;12.02;3.30;;;4.50;71.30;;;;;;5073624;28;20236;-66
2022/02/01 09:31:32;;;;;;;7.50;3.35;;;4.50;70.90;;;;;;5073856;28;20202;-66
2022/02/01 09:33:59;;;;;;;7.97;4.50;;;4.50;69.40;;;;;;5073580;28;20189;-66
2022/02/01 09:36:27;;;;;;;4.28;2.22;;;4.50;69.20;;;;;;5073660;28;20186;-69
2022/02/01 09:38:56;;;;;;;16.25;9.05;;;4.50;68.00;;;;;;5068209;28;20189;-66
2022/02/01 09:41:24;;;;;;;10.50;6.05;;;4.50;68.50;;;;;;5073818;28;20204;-66
2022/02/01 09:43:52;;;;;;;3.95;2.33;;;4.60;68.60;;;;;;5073756;28;20300;-66
2022/02/01 09:46:21;;;;;;;7.32;3.85;;;4.60;68.10;;;;;;5073268;28;20194;-66
2022/02/01 09:48:48;;;;;;;12.98;7.00;;;4.60;68.50;;;;;;5073405;28;20189;-66
2022/02/01 09:51:16;;;;;;;11.25;7.57;;;4.70;68.40;;;;;;5073342;28;20641;-66
2022/02/01 09:53:43;;;;;;;11.82;4.97;;;4.70;67.90;;;;;;5073681;28;20181;-67
2022/02/01 09:56:15;;;;;;;13.52;4.65;;;4.80;68.10;;;;;;5069320;28;20268;-67
2022/02/01 09:58:43;;;;;;;15.38;7.80;;;4.80;67.60;;;;;;5073496;28;20282;-67
2022/02/01 10:01:18;;;;;;;7.85;3.40;;;4.80;67.60;;;;;;5072896;28;20571;-68
2022/02/01 10:03:47;;;;;;;8.30;4.70;;;4.80;67.00;;;;;;5070104;28;20286;-66
2022/02/01 10:06:15;;;;;;;12.18;6.97;;;4.90;66.90;;;;;;5073255;28;20270;-67
2022/02/01 10:08:46;;;;;;;16.65;8.02;;;4.90;66.20;;;;;;5073038;28;20277;-67
2022/02/01 10:11:15;;;;;;;9.13;4.82;;;5.00;66.60;;;;;;5069288;28;20193;-66
2022/02/01 10:13:45;;;;;;;8.35;4.65;;;5.00;66.60;;;;;;5073285;28;20208;-67
2022/02/01 10:16:27;;;;;;;10.88;5.78;;;5.10;65.60;;;;;;5072745;28;20656;-67
2022/02/01 10:18:54;;;;;;;9.68;4.70;;;5.10;66.10;;;;;;5072926;28;20189;-66
2022/02/01 10:21:22;;;;;;;11.10;9.00;;;5.20;66.30;;;;;;5072967;28;20543;-66
2022/02/01 10:23:49;;;;;;;7.72;5.13;;;5.20;66.60;;;;;;5068940;28;20327;-66
2022/02/01 10:26:23;;;;;;;7.38;2.88;;;5.30;65.90;;;;;;5072968;28;20190;-67
2022/02/01 10:29:04;;;;;;;5.50;1.88;;;5.40;65.40;;;;;;5072875;28;20304;-68
2022/02/01 10:31:39;;;;;;;7.75;2.35;;;5.40;64.10;;;;;;5073028;28;20203;-66
2022/02/01 10:34:39;;;;;;;8.65;3.05;;;5.40;63.80;;;;;;5071767;28;20262;-67
2022/02/01 10:37:17;;;;;;;3.90;1.60;;;5.40;64.60;;;;;;5072458;28;20188;-67
2022/02/01 10:39:45;;;;;;;6.80;4.10;;;5.40;64.30;;;;;;5072833;28;20193;-66
2022/02/01 10:42:16;;;;;;;6.95;4.70;;;5.50;64.30;;;;;;5071874;28;20185;-68
2022/02/01 10:44:45;;;;;;;5.47;3.20;;;5.50;64.50;;;;;;5072650;28;20189;-66
2022/02/01 10:47:15;;;;;;;5.82;2.20;;;5.60;64.90;;;;;;5072702;28;20190;-72
2022/02/01 10:49:43;;;;;;;4.35;2.60;;;5.60;64.30;;;;;;5071125;28;20236;-67
2022/02/01 10:52:13;;;;;;;4.80;2.38;;;5.70;64.70;;;;;;5072470;28;20679;-67
2022/02/01 10:54:42;;;;;;;5.28;2.05;;;5.70;64.40;;;;;;5071998;28;20189;-68
2022/02/01 10:57:12;;;;;;;6.18;2.50;;;5.70;63.80;;;;;;5071825;28;20243;-67
2022/02/01 10:59:41;;;;;;;5.10;2.38;;;5.70;64.40;;;;;;5071443;28;20649;-67
2022/02/01 11:02:08;;;;;;;7.60;3.47;;;5.70;63.60;;;;;;5071943;28;20201;-67
2022/02/01 11:04:38;;;;;;;5.38;2.50;;;5.70;63.60;;;;;;5071247;28;20328;-68
2022/02/01 11:07:07;;;;;;;5.35;2.30;;;5.70;63.20;;;;;;5071935;28;20691;-67
2022/02/01 11:09:38;;;;;;;6.63;3.00;;;5.70;63.40;;;;;;5071642;28;20847;-67
2022/02/01 11:12:08;;;;;;;6.20;3.00;;;5.70;64.00;;;;;;5072090;28;20502;-68
2022/02/01 11:14:44;;;;;;;3.85;2.17;;;5.70;63.90;;;;;;5054937;28;20190;-67
2022/02/01 11:17:15;;;;;;;6.10;2.67;;;5.70;63.20;;;;;;5056864;28;20232;-66
2022/02/01 11:19:48;;;;;;;6.00;2.00;;;5.70;62.90;;;;;;5071502;28;20637;-70
2022/02/01 11:22:24;;;;;;;3.95;2.03;;;5.70;63.60;;;;;;5068001;28;20193;-67
2022/02/01 11:24:54;;;;;;;3.88;1.70;;;5.60;63.60;;;;;;5071200;28;20191;-68
2022/02/01 11:27:33;;;;;;;5.03;1.30;;;5.60;63.50;;;;;;5067206;28;20226;-67
2022/02/01 11:30:12;;;;;;;3.60;1.80;;;5.60;63.70;;;;;;5072088;28;20229;-66
2022/02/01 11:32:48;;;;;;;5.68;1.60;;;5.70;64.10;;;;;;5071445;28;20189;-67
2022/02/01 11:35:21;;;;;;;4.18;2.00;;;5.70;63.90;;;;;;5069046;28;20553;-68
2022/02/01 11:37:50;;;;;;;4.47;2.03;;;5.70;63.10;;;;;;5070469;28;20251;-67
2022/02/01 11:40:24;;;;;;;6.55;2.25;;;5.70;63.60;;;;;;5071408;28;20212;-74
2022/02/01 11:42:58;;;;;;;4.60;2.72;;;5.80;63.50;;;;;;5071273;28;20210;-67
2022/02/01 11:45:35;;;;;;;4.28;2.05;;;5.80;63.10;;;;;;5071694;28;20211;-67
2022/02/01 11:48:03;;;;;;;4.93;2.00;;;5.70;62.30;;;;;;5071488;28;20586;-67
2022/02/01 11:50:44;;;;;;;6.47;2.22;;;5.60;62.60;;;;;;5071717;28;20194;-67
2022/02/01 11:53:20;;;;;;;4.70;2.13;;;5.50;63.00;;;;;;5071009;28;20231;-68
2022/02/01 11:55:49;;;;;;;5.75;2.10;;;5.50;62.20;;;;;;5071600;28;20197;-67
2022/02/01 11:58:30;;;;;;;5.40;2.50;;;5.50;62.70;;;;;;5071312;28;20193;-67
2022/02/01 12:01:03;;;;;;;3.85;2.10;;;5.50;63.30;;;;;;5069008;28;20715;-67
2022/02/01 12:03:35;;;;;;;3.03;1.88;;;5.60;63.20;;;;;;5069994;28;20763;-68
2022/02/01 12:06:08;;;;;;;4.53;2.17;;;5.60;62.40;;;;;;5066713;28;20247;-67
2022/02/01 12:08:41;;;;;;;4.20;1.95;;;5.60;62.80;;;;;;5070139;28;20198;-70
2022/02/01 12:11:14;;;;;;;4.82;1.85;;;5.60;61.50;;;;;;5067194;28;20308;-67
2022/02/01 12:13:42;;;;;;;3.83;1.85;;;5.60;61.40;;;;;;5068915;28;20645;-68
2022/02/01 12:16:12;;;;;;;5.18;2.40;;;5.60;62.00;;;;;;5070754;28;20201;-68
2022/02/01 12:18:55;;;;;;;5.15;1.88;;;5.70;61.50;;;;;;5066465;28;20186;-67
2022/02/01 12:21:36;;;;;;;3.47;1.60;;;5.70;60.30;;;;;;5070175;28;20193;-67
2022/02/01 12:24:06;;;;;;;3.92;1.88;;;5.70;60.30;;;;;;5068016;28;20221;-67
2022/02/01 12:26:36;;;;;;;4.25;1.90;;;5.70;60.10;;;;;;5069800;28;20197;-68
2022/02/01 12:29:05;;;;;;;5.85;2.13;;;5.80;60.70;;;;;;5067640;28;20181;-67
2022/02/01 12:31:38;;;;;;;3.05;1.90;;;5.80;60.90;;;;;;5070642;28;20198;-67
2022/02/01 12:34:08;;;;;;;3.22;1.70;;;5.90;60.40;;;;;;5063751;28;20208;-68
2022/02/01 12:36:38;;;;;;;4.40;1.60;;;5.90;60.60;;;;;;5066611;28;20201;-67
2022/02/01 12:39:13;;;;;;;4.60;1.92;;;6.00;61.50;;;;;;5070223;28;20550;-67
2022/02/01 12:41:50;;;;;;;4.78;1.65;;;6.00;60.90;;;;;;5070243;28;20255;-67
2022/02/01 12:47:06;;;;;;;2.90;1.40;;;6.10;61.70;;;;;;5069995;28;20211;-67
2022/02/01 12:49:39;;;;;;;3.13;1.48;;;6.10;61.20;;;;;;5070440;28;20243;-67
2022/02/01 12:52:16;;;;;;;3.35;1.45;;;6.10;61.30;;;;;;5066328;28;20197;-67
2022/02/01 12:54:44;;;;;;;5.55;2.30;;;6.00;61.40;;;;;;5069500;28;20189;-67
2022/02/01 12:57:13;;;;;;;6.00;1.60;;;5.90;61.30;;;;;;5068976;28;20189;-67
2022/02/01 12:59:43;;;;;;;2.80;1.20;;;5.90;61.30;;;;;;5069253;28;20296;-69
2022/02/01 13:02:13;;;;;;;2.63;1.77;;;5.80;60.90;;;;;;5070270;28;20246;-67
2022/02/01 13:04:41;;;;;;;3.72;1.95;;;5.80;61.10;;;;;;5069076;28;20216;-68
2022/02/01 13:07:19;;;;;;;2.92;1.33;;;5.80;60.70;;;;;;5069727;28;20198;-67
2022/02/01 13:15:27;;;;;;;3.13;1.55;;;5.50;60.10;;;;;;5070118;28;20196;-69
2022/02/01 13:18:16;;;;;;;3.42;1.25;;;5.40;59.20;;;;;;5069331;28;20196;-69
2022/02/01 13:20:43;;;;;;;3.95;1.35;;;5.30;59.70;;;;;;5069086;28;20201;-68
2022/02/01 13:23:12;;;;;;;2.90;1.55;;;5.20;59.50;;;;;;5070028;28;20197;-67
2022/02/01 13:25:41;;;;;;;2.65;1.35;;;5.10;60.60;;;;;;5069318;28;20190;-67
2022/02/01 13:28:11;;;;;;;5.28;1.90;;;5.10;60.60;;;;;;5069925;28;20711;-67
2022/02/01 13:30:39;;;;;;;3.47;1.27;;;5.00;60.70;;;;;;5069613;28;20669;-67
2022/02/01 13:33:11;;;;;;;3.38;1.13;;;4.90;61.10;;;;;;5068993;28;20664;-67
2022/02/01 13:35:53;;;;;;;3.35;1.00;;;4.80;61.20;;;;;;5069568;28;20235;-67
2022/02/01 13:38:22;;;;;;;2.83;1.13;;;4.80;61.50;;;;;;5068856;28;20540;-67
2022/02/01 13:40:50;;;;;;;6.05;1.30;;;4.70;60.50;;;;;;5069799;28;20603;-67
2022/02/01 13:43:20;;;;;;;2.40;1.05;;;4.70;60.30;;;;;;5068960;28;20182;-68
2022/02/01 13:45:49;;;;;;;3.45;1.15;;;4.60;61.10;;;;;;5069369;28;20209;-67
2022/02/01 13:48:23;;;;;;;4.18;1.40;;;4.50;60.70;;;;;;5072894;28;20194;-68
2022/02/01 13:50:50;;;;;;;2.25;1.27;;;4.50;60.30;;;;;;5073235;28;20189;-67
2022/02/01 13:53:18;;;;;;;2.30;1.15;;;4.40;60.40;;;;;;5073680;28;20740;-67
2022/02/01 13:55:46;;;;;;;1.58;0.80;;;4.40;60.30;;;;;;5073029;28;20594;-67
2022/02/01 13:58:17;;;;;;;1.60;0.80;;;4.40;60.00;;;;;;5071842;28;20190;-69
2022/02/01 14:00:46;;;;;;;1.90;1.10;;;4.30;60.20;;;;;;5072331;28;20196;-67
2022/02/01 14:03:31;;;;;;;4.88;1.42;;;4.30;60.90;;;;;;5071827;28;20196;-67
2022/02/01 14:06:07;;;;;;;4.35;1.50;;;4.30;60.60;;;;;;5072587;28;20219;-66
2022/02/01 14:11:47;;;;;;;3.63;1.17;;;4.30;61.70;;;;;;5070875;28;20569;-66
2022/02/01 14:25:51;;;;;;;2.47;1.10;;;4.10;62.40;;;;;;5072358;28;20540;-71
2022/02/01 14:28:31;;;;;;;5.35;1.10;;;4.20;62.00;;;;;;5068976;28;20228;-67
2022/02/01 14:36:28;;;;;;;3.60;1.00;;;4.10;61.40;;;;;;5069756;28;20185;-67
2022/02/01 14:39:06;;;;;;;4.15;2.30;;;4.20;61.90;;;;;;5072327;28;20280;-68
2022/02/01 14:44:40;;;;;;;2.00;0.75;;;4.30;61.30;;;;;;5071996;28;20706;-69
2022/02/01 14:47:07;;;;;;;2.60;0.70;;;4.20;60.30;;;;;;5072588;28;20200;-71
2022/02/01 14:49:35;;;;;;;2.10;0.80;;;4.00;59.80;;;;;;5068126;28;20182;-67
2022/02/01 14:52:05;;;;;;;2.50;0.90;;;4.00;59.60;;;;;;5072197;28;20288;-68
2022/02/01 14:54:38;;;;;;;4.05;1.02;;;3.90;59.90;;;;;;5072125;28;20186;-68
2022/02/01 15:06:08;;;;;;;2.08;0.85;;;3.80;61.20;;;;;;5000147;28;20212;-68